Time;durP1;ratioP1;P1;durP2;ratioP2;P2;SDS_P1;SDS_P2;PMS_P1;PMS_P2;Temp;Humidity;BMP_temperature;BMP_pressure;BME280_temperature;BME280_humidity;BME280_pressure;Samples;Min_cycle;Max_cycle;Signal;HPM_P1;HPM_P2
2021/08/07 00:01:17;;;;;;;;;;;;;;;-144.99;100.00;52374.72;5028744;28;19925;-60
2021/08/07 00:03:45;;;;;;;;;;;;;;;-144.99;100.00;52366.56;5026421;28;20386;-61
2021/08/07 00:06:11;;;;;;;;;;;;;;;-144.99;100.00;52399.19;5026297;28;19925;-61
2021/08/07 00:08:38;;;;;;;;;;;;;;;-144.99;100.00;52403.25;5027355;28;19932;-62
2021/08/07 00:11:04;;;;;;;;;;;;;;;-144.99;100.00;52391.03;5026659;28;19940;-59
2021/08/07 00:13:31;;;;;;;;;;;;;;;-144.99;100.00;52395.09;5025325;28;19929;-59
2021/08/07 00:15:57;;;;;;;;;;;;;;;-144.99;100.00;52374.72;5026151;28;19966;-58
2021/08/07 00:18:23;;;;;;;;;;;;;;;-144.99;100.00;52358.41;5025427;28;20331;-59
2021/08/07 00:20:51;;;;;;;;;;;;;;;-144.99;100.00;52386.94;5026228;28;19929;-58
2021/08/07 00:23:17;;;;;;;;;;;;;;;-144.99;100.00;52346.19;5025687;28;19933;-58
2021/08/07 00:25:44;;;;;;;;;;;;;;;-144.99;100.00;52325.81;5026089;28;20382;-59
2021/08/07 00:28:10;;;;;;;;;;;;;;;-144.99;100.00;52354.34;5024752;28;19925;-58
2021/08/07 00:30:37;;;;;;;;;;;;;;;-144.99;100.00;52388.97;5025870;28;19925;-58
2021/08/07 00:33:03;;;;;;;;;;;;;;;-144.99;100.00;52399.19;5025790;28;19925;-58
2021/08/07 00:35:29;;;;;;;;;;;;;;;-144.99;100.00;52391.03;5024212;28;19937;-62
2021/08/07 00:37:57;;;;;;;;;;;;;;;-144.99;100.00;52370.63;5025768;28;19935;-64
2021/08/07 00:40:23;;;;;;;;;;;;;;;-144.99;100.00;52378.78;5025123;28;19932;-63
2021/08/07 00:42:50;;;;;;;;;;;;;;;-144.99;100.00;52403.25;5025323;28;20363;-63
2021/08/07 00:45:16;;;;;;;;;;;;;;;-144.99;100.00;52350.25;5026142;28;19931;-63
2021/08/07 00:47:43;;;;;;;;;;;;;;;-144.99;100.00;52356.38;5025617;28;19965;-57
2021/08/07 00:50:10;;;;;;;;;;;;;;;-144.99;100.00;52350.25;5025569;28;19925;-59
2021/08/07 00:52:36;;;;;;;;;;;;;;;-144.99;100.00;52360.44;5025621;28;19925;-57
2021/08/07 00:55:05;;;;;;;;;;;;;;;-144.99;100.00;52370.63;5024752;28;19925;-58
2021/08/07 00:57:31;;;;;;;;;;;;;;;-144.99;100.00;52362.50;5024887;28;19929;-58
2021/08/07 00:59:58;;;;;;;;;;;;;;;-144.99;100.00;52403.25;5024977;28;19925;-56
2021/08/07 01:02:25;;;;;;;;;;;;;;;-144.99;100.00;52403.25;5024110;28;19925;-59
2021/08/07 01:04:54;;;;;;;;;;;;;;;-144.99;100.00;52391.03;5025783;28;20019;-58
2021/08/07 01:07:30;;;;;;;;;;;;;;;-144.99;100.00;52391.03;5025660;28;20324;-58
2021/08/07 01:10:01;;;;;;;;;;;;;;;-144.99;100.00;52374.72;5022469;28;20282;-59
2021/08/07 01:12:42;;;;;;;;;;;;;;;-144.99;100.00;52354.34;5025580;28;19986;-58
2021/08/07 01:15:09;;;;;;;;;;;;;;;-144.99;100.00;52354.34;5022343;28;20027;-57
2021/08/07 01:17:37;;;;;;;;;;;;;;;-144.99;100.00;52378.78;5026405;28;20464;-58
2021/08/07 01:20:09;;;;;;;;;;;;;;;-144.99;100.00;52372.69;5024114;28;19940;-57
2021/08/07 01:22:43;;;;;;;;;;;;;;;-144.99;100.00;52368.59;5024476;28;19925;-58
2021/08/07 01:25:12;;;;;;;;;;;;;;;-144.99;100.00;52350.25;5023223;28;20055;-58
2021/08/07 01:27:40;;;;;;;;;;;;;;;-144.99;100.00;52370.63;5021718;28;20284;-59
2021/08/07 01:30:09;;;;;;;;;;;;;;;-144.99;100.00;52350.25;5022988;28;19925;-59
2021/08/07 01:32:37;;;;;;;;;;;;;;;-144.99;100.00;52336.00;5024009;28;19933;-59
2021/08/07 01:35:06;;;;;;;;;;;;;;;-144.99;100.00;52378.78;5024601;28;20404;-58
2021/08/07 01:37:32;;;;;;;;;;;;;;;-144.99;100.00;52354.34;5023231;28;19940;-60
2021/08/07 01:39:59;;;;;;;;;;;;;;;-144.99;100.00;52403.25;5025451;28;19925;-59
2021/08/07 01:42:25;;;;;;;;;;;;;;;-144.99;100.00;52374.72;5024028;28;19928;-59
2021/08/07 01:44:54;;;;;;;;;;;;;;;-144.99;100.00;52399.19;5025206;28;19947;-58
2021/08/07 01:47:22;;;;;;;;;;;;;;;-144.99;100.00;52354.34;5025293;28;20375;-59
2021/08/07 01:49:54;;;;;;;;;;;;;;;-144.99;100.00;52370.63;5025237;28;21121;-57
2021/08/07 01:52:23;;;;;;;;;;;;;;;-144.99;100.00;52364.53;5023788;28;19925;-58
2021/08/07 01:54:53;;;;;;;;;;;;;;;-144.99;100.00;52350.25;5027049;28;19925;-59
2021/08/07 01:57:23;;;;;;;;;;;;;;;-144.99;100.00;52415.47;5027355;28;19936;-58
2021/08/07 01:59:51;;;;;;;;;;;;;;;-144.99;100.00;52348.22;5027114;28;19929;-58
2021/08/07 02:02:19;;;;;;;;;;;;;;;-144.99;100.00;52374.72;5020904;28;19998;-57
2021/08/07 02:04:46;;;;;;;;;;;;;;;-144.99;100.00;52354.34;5021029;28;19929;-57
2021/08/07 02:07:12;;;;;;;;;;;;;;;-144.99;100.00;52411.41;5023126;28;19955;-57
2021/08/07 02:09:39;;;;;;;;;;;;;;;-144.99;100.00;52358.41;5022254;28;19931;-57
2021/08/07 02:12:06;;;;;;;;;;;;;;;-144.99;100.00;52419.56;5020383;28;20374;-59
2021/08/07 02:14:33;;;;;;;;;;;;;;;-144.99;100.00;52350.25;5024590;28;19933;-57
2021/08/07 02:17:01;;;;;;;;;;;;;;;-144.99;100.00;52374.72;5027726;28;20402;-57
2021/08/07 02:19:29;;;;;;;;;;;;;;;-144.99;100.00;52346.19;5026461;28;20579;-58
2021/08/07 02:21:55;;;;;;;;;;;;;;;-144.99;100.00;52419.56;5028039;28;19941;-59
2021/08/07 02:24:24;;;;;;;;;;;;;;;-144.99;100.00;52386.94;5027629;28;19925;-56
2021/08/07 02:26:50;;;;;;;;;;;;;;;-144.99;100.00;52342.09;5027003;28;19932;-56
2021/08/07 02:29:17;;;;;;;;;;;;;;;-144.99;100.00;52362.50;5026796;28;20005;-58
2021/08/07 02:31:44;;;;;;;;;;;;;;;-144.99;100.00;52391.03;5028847;28;19929;-57
2021/08/07 02:34:11;;;;;;;;;;;;;;;-144.99;100.00;52350.25;5028992;28;19937;-57
2021/08/07 02:36:39;;;;;;;;;;;;;;;-144.99;100.00;52358.41;5029865;28;19929;-59
2021/08/07 02:39:05;;;;;;;;;;;;;;;-144.99;100.00;52368.59;5029491;28;19925;-58
2021/08/07 02:41:32;;;;;;;;;;;;;;;-144.99;100.00;52374.72;5026570;28;19959;-59
2021/08/07 02:43:59;;;;;;;;;;;;;;;-144.99;100.00;52382.88;5028432;28;19967;-58
2021/08/07 02:46:26;;;;;;;;;;;;;;;-144.99;100.00;52403.25;5027033;28;19941;-58
2021/08/07 02:48:54;;;;;;;;;;;;;;;-144.99;100.00;52386.94;5027433;28;19933;-57
2021/08/07 02:51:21;;;;;;;;;;;;;;;-144.99;100.00;52370.63;5028436;28;19925;-58
2021/08/07 02:53:49;;;;;;;;;;;;;;;-144.99;100.00;52370.63;5027220;28;19966;-58
2021/08/07 02:56:15;;;;;;;;;;;;;;;-144.99;100.00;52370.63;5027754;28;19940;-58
2021/08/07 02:58:42;;;;;;;;;;;;;;;-144.99;100.00;52368.59;5026857;28;19925;-58
2021/08/07 03:01:08;;;;;;;;;;;;;;;-144.99;100.00;52338.03;5027263;28;20350;-58
2021/08/07 03:03:35;;;;;;;;;;;;;;;-144.99;100.00;52354.34;5027664;28;19967;-58
2021/08/07 03:06:01;;;;;;;;;;;;;;;-144.99;100.00;52356.38;5026558;28;20383;-59
2021/08/07 03:08:28;;;;;;;;;;;;;;;-144.99;100.00;52354.34;5027355;28;19961;-59
2021/08/07 03:10:55;;;;;;;;;;;;;;;-144.99;100.00;52358.41;5026450;28;19953;-59
2021/08/07 03:13:22;;;;;;;;;;;;;;;-144.99;100.00;52382.88;5026958;28;19983;-59
2021/08/07 03:15:48;;;;;;;;;;;;;;;-144.99;100.00;52338.03;5027662;28;19960;-59
2021/08/07 03:18:14;;;;;;;;;;;;;;;-144.99;100.00;52372.69;5026611;28;19932;-60
2021/08/07 03:20:41;;;;;;;;;;;;;;;-144.99;100.00;52374.72;5025729;28;19925;-60
2021/08/07 03:23:08;;;;;;;;;;;;;;;-144.99;100.00;52395.09;5027161;28;19980;-60
2021/08/07 03:25:34;;;;;;;;;;;;;;;-144.99;100.00;52350.25;5026864;28;19963;-60
2021/08/07 03:28:02;;;;;;;;;;;;;;;-144.99;100.00;52399.19;5026042;28;19925;-60
2021/08/07 03:30:29;;;;;;;;;;;;;;;-144.99;100.00;52362.50;5028379;28;20026;-60
2021/08/07 03:32:56;;;;;;;;;;;;;;;-144.99;100.00;52395.09;5027765;28;20355;-59
2021/08/07 03:35:22;;;;;;;;;;;;;;;-144.99;100.00;52362.50;5027208;28;20190;-59
2021/08/07 03:37:49;;;;;;;;;;;;;;;-144.99;100.00;52374.72;5028099;28;19951;-59
2021/08/07 03:40:15;;;;;;;;;;;;;;;-144.99;100.00;52388.97;5026196;28;19957;-59
2021/08/07 03:42:42;;;;;;;;;;;;;;;-144.99;100.00;52366.56;5024571;28;19945;-59
2021/08/07 03:45:10;;;;;;;;;;;;;;;-144.99;100.00;52368.59;5026997;28;20022;-59
2021/08/07 03:47:46;;;;;;;;;;;;;;;-144.99;100.00;52391.03;5027684;28;19949;-59
2021/08/07 03:50:13;;;;;;;;;;;;;;;-144.99;100.00;52409.38;5024882;28;19932;-58
2021/08/07 03:52:39;;;;;;;;;;;;;;;-144.99;100.00;52356.38;5026712;28;20006;-59
2021/08/07 03:55:06;;;;;;;;;;;;;;;-144.99;100.00;52395.09;5026520;28;20490;-59
2021/08/07 03:57:33;;;;;;;;;;;;;;;-144.99;100.00;52386.94;5028065;28;19933;-59
2021/08/07 03:59:59;;;;;;;;;;;;;;;-144.99;100.00;52356.38;5027010;28;20018;-59
2021/08/07 04:02:27;;;;;;;;;;;;;;;-144.99;100.00;52403.25;5037769;22;19924;-65
2021/08/07 04:04:53;;;;;;;;;;;;;;;-144.99;100.00;52370.63;5027824;28;19957;-60
2021/08/07 04:07:20;;;;;;;;;;;;;;;-144.99;100.00;52370.63;5024651;28;19959;-60
2021/08/07 04:09:46;;;;;;;;;;;;;;;-144.99;100.00;52399.19;5027176;28;19982;-61
2021/08/07 04:12:12;;;;;;;;;;;;;;;-144.99;100.00;52376.75;5026829;28;20407;-61
2021/08/07 04:14:40;;;;;;;;;;;;;;;-144.99;100.00;52395.09;5026445;28;20402;-61
2021/08/07 04:17:06;;;;;;;;;;;;;;;-144.99;100.00;52395.09;5027301;28;20290;-61
2021/08/07 04:19:34;;;;;;;;;;;;;;;-144.99;100.00;52382.88;5027165;28;19972;-60
2021/08/07 04:22:00;;;;;;;;;;;;;;;-144.99;100.00;52360.44;5026163;28;19940;-60
2021/08/07 04:24:26;;;;;;;;;;;;;;;-144.99;100.00;52386.94;5027340;28;19967;-66
2021/08/07 04:26:53;;;;;;;;;;;;;;;-144.99;100.00;52395.09;5026460;28;19955;-66
2021/08/07 04:29:19;;;;;;;;;;;;;;;-144.99;100.00;52397.13;5024990;28;19925;-66
2021/08/07 04:31:45;;;;;;;;;;;;;;;-144.99;100.00;52354.34;5026299;28;20007;-66
2021/08/07 04:34:12;;;;;;;;;;;;;;;-144.99;100.00;52346.19;5026858;28;19936;-65
2021/08/07 04:36:39;;;;;;;;;;;;;;;-144.99;100.00;52382.88;5027777;28;19931;-63
2021/08/07 04:39:06;;;;;;;;;;;;;;;-144.99;100.00;52354.34;5025920;28;20391;-63
2021/08/07 04:41:32;;;;;;;;;;;;;;;-144.99;100.00;52378.78;5027712;28;20067;-63
2021/08/07 04:43:59;;;;;;;;;;;;;;;-144.99;100.00;52350.25;5026856;28;19971;-65
2021/08/07 04:46:25;;;;;;;;;;;;;;;-144.99;100.00;52384.91;5026685;28;19929;-65
2021/08/07 04:48:51;;;;;;;;;;;;;;;-144.99;100.00;52325.81;5027551;28;19937;-65
2021/08/07 04:51:17;;;;;;;;;;;;;;;-144.99;100.00;52366.56;5026541;28;19990;-60
2021/08/07 04:53:45;;;;;;;;;;;;;;;-144.99;100.00;52403.25;5026559;28;20314;-60
2021/08/07 04:56:12;;;;;;;;;;;;;;;-144.99;100.00;52376.75;5025882;28;20305;-60
2021/08/07 04:58:38;;;;;;;;;;;;;;;-144.99;100.00;52391.03;5024577;28;19951;-60
2021/08/07 05:01:04;;;;;;;;;;;;;;;-144.99;100.00;52350.25;5026705;28;19941;-60
2021/08/07 05:03:31;;;;;;;;;;;;;;;-144.99;100.00;52399.19;5026373;28;19952;-60
2021/08/07 05:05:57;;;;;;;;;;;;;;;-144.99;100.00;52346.19;5025573;28;19933;-60
2021/08/07 05:08:23;;;;;;;;;;;;;;;-144.99;100.00;52358.41;5025729;28;19925;-60
2021/08/07 05:10:51;;;;;;;;;;;;;;;-144.99;100.00;52350.25;5025909;28;19944;-60
2021/08/07 05:13:17;;;;;;;;;;;;;;;-144.99;100.00;52370.63;5026685;28;19933;-60
2021/08/07 05:15:44;;;;;;;;;;;;;;;-144.99;100.00;52391.03;5026591;28;19940;-60
2021/08/07 05:18:10;;;;;;;;;;;;;;;-144.99;100.00;52350.25;5026365;28;20323;-60
2021/08/07 05:20:37;;;;;;;;;;;;;;;-144.99;100.00;52350.25;5022300;28;19963;-60
2021/08/07 05:23:03;;;;;;;;;;;;;;;-144.99;100.00;52366.56;5023634;28;20276;-60
2021/08/07 05:25:29;;;;;;;;;;;;;;;-144.99;100.00;52382.88;5026622;28;20001;-60
2021/08/07 05:27:57;;;;;;;;;;;;;;;-144.99;100.00;52356.38;5026673;28;19945;-62
2021/08/07 05:30:23;;;;;;;;;;;;;;;-144.99;100.00;52376.75;5026340;28;19959;-62
2021/08/07 05:32:50;;;;;;;;;;;;;;;-144.99;100.00;52374.72;5025752;28;19933;-60
2021/08/07 05:35:16;;;;;;;;;;;;;;;-144.99;100.00;52374.72;5027958;28;19966;-60
2021/08/07 05:37:44;;;;;;;;;;;;;;;-144.99;100.00;52378.78;5023165;28;20437;-60
2021/08/07 05:40:12;;;;;;;;;;;;;;;-144.99;100.00;52399.19;5025316;28;19925;-60
2021/08/07 05:42:38;;;;;;;;;;;;;;;-144.99;100.00;52354.34;5023766;28;19980;-60
2021/08/07 05:45:07;;;;;;;;;;;;;;;-144.99;100.00;52358.41;5027173;28;20224;-62
2021/08/07 05:47:33;;;;;;;;;;;;;;;-144.99;100.00;52354.34;5025614;28;19948;-62
2021/08/07 05:50:00;;;;;;;;;;;;;;;-144.99;100.00;52325.81;5024454;28;19925;-62
2021/08/07 05:52:27;;;;;;;;;;;;;;;-144.99;100.00;52344.16;5024930;28;19936;-61
2021/08/07 05:54:54;;;;;;;;;;;;;;;-144.99;100.00;52342.09;5024654;28;19933;-61
2021/08/07 05:57:20;;;;;;;;;;;;;;;-144.99;100.00;52350.25;5025811;28;20307;-65
2021/08/07 05:59:46;;;;;;;;;;;;;;;-144.99;100.00;52354.34;5024201;28;19933;-65
2021/08/07 06:02:14;;;;;;;;;;;;;;;-144.99;100.00;52342.09;5024956;28;19933;-65
2021/08/07 06:04:40;;;;;;;;;;;;;;;-144.99;100.00;52336.00;5023181;28;19932;-65
2021/08/07 06:07:07;;;;;;;;;;;;;;;-144.99;100.00;52407.31;5025786;28;19944;-65
2021/08/07 06:09:33;;;;;;;;;;;;;;;-144.99;100.00;52352.28;5024774;28;19956;-65
2021/08/07 06:12:00;;;;;;;;;;;;;;;-144.99;100.00;52338.03;5025340;28;19925;-65
2021/08/07 06:14:26;;;;;;;;;;;;;;;-144.99;100.00;52346.19;5025240;28;19933;-66
2021/08/07 06:16:52;;;;;;;;;;;;;;;-144.99;100.00;52336.00;5026035;28;20004;-65
2021/08/07 06:19:20;;;;;;;;;;;;;;;-144.99;100.00;52352.28;5027029;28;19960;-65
2021/08/07 06:21:47;;;;;;;;;;;;;;;-144.99;100.00;52342.09;5028974;28;19965;-65
2021/08/07 06:24:13;;;;;;;;;;;;;;;-144.99;100.00;52344.16;5030224;28;19936;-62
2021/08/07 06:26:39;;;;;;;;;;;;;;;-144.99;100.00;52378.78;5029138;28;20353;-62
2021/08/07 06:29:06;;;;;;;;;;;;;;;-144.99;100.00;52313.56;5028887;28;19964;-62
2021/08/07 06:31:33;;;;;;;;;;;;;;;-144.99;100.00;52329.88;5030158;28;19932;-62
2021/08/07 06:34:00;;;;;;;;;;;;;;;-144.99;100.00;52336.00;5029525;28;19957;-62
2021/08/07 06:36:27;;;;;;;;;;;;;;;-144.99;100.00;52350.25;5024875;28;19929;-62
2021/08/07 06:38:54;;;;;;;;;;;;;;;-144.99;100.00;52329.88;5025306;28;20361;-62
2021/08/07 06:41:20;;;;;;;;;;;;;;;-144.99;100.00;52352.28;5026266;28;19933;-63
2021/08/07 06:43:46;;;;;;;;;;;;;;;-144.99;100.00;52342.09;5026044;28;19953;-62
2021/08/07 06:46:13;;;;;;;;;;;;;;;-144.99;100.00;52329.88;5023726;28;19943;-64
2021/08/07 06:48:39;;;;;;;;;;;;;;;-144.99;100.00;52317.66;5022672;28;20069;-63
2021/08/07 06:51:06;;;;;;;;;;;;;;;-144.99;100.00;52329.88;5024723;28;20016;-64
2021/08/07 06:53:34;;;;;;;;;;;;;;;-144.99;100.00;52333.94;5024695;28;19972;-66
2021/08/07 06:56:00;;;;;;;;;;;;;;;-144.99;100.00;52331.91;5027518;28;19945;-66
2021/08/07 06:58:27;;;;;;;;;;;;;;;-144.99;100.00;52325.81;5021994;28;19933;-66
2021/08/07 07:00:53;;;;;;;;;;;;;;;-144.99;100.00;52333.94;5022199;28;19940;-66
2021/08/07 07:03:20;;;;;;;;;;;;;;;-144.99;100.00;52293.19;5028433;28;19951;-67
2021/08/07 07:05:46;;;;;;;;;;;;;;;-144.99;100.00;52366.56;5027441;28;19929;-66
2021/08/07 07:08:12;;;;;;;;;;;;;;;-144.99;100.00;52340.06;5029603;28;20447;-66
2021/08/07 07:10:40;;;;;;;;;;;;;;;-144.99;100.00;52333.94;5028970;28;19939;-66
2021/08/07 07:13:08;;;;;;;;;;;;;;;-144.99;100.00;52354.34;5029484;28;19948;-66
2021/08/07 07:15:35;;;;;;;;;;;;;;;-144.99;100.00;52313.56;5027920;28;19975;-66
2021/08/07 07:18:01;;;;;;;;;;;;;;;-144.99;100.00;52362.50;5029810;28;19936;-67
2021/08/07 07:20:28;;;;;;;;;;;;;;;-144.99;100.00;52329.88;5028381;28;19925;-68
2021/08/07 07:22:54;;;;;;;;;;;;;;;-144.99;100.00;52313.56;5027366;28;19936;-67
2021/08/07 07:25:20;;;;;;;;;;;;;;;-144.99;100.00;52293.19;5026036;28;19956;-67
2021/08/07 07:27:51;;;;;;;;;;;;;;;-144.99;100.00;52325.81;5027411;28;20363;-67
2021/08/07 07:30:18;;;;;;;;;;;;;;;-144.99;100.00;52329.88;5028534;28;19926;-67
2021/08/07 07:32:44;;;;;;;;;;;;;;;-144.99;100.00;52283.00;5027205;28;20414;-67
2021/08/07 07:35:11;;;;;;;;;;;;;;;-144.99;100.00;52321.72;5028194;28;19925;-65
2021/08/07 07:37:38;;;;;;;;;;;;;;;-144.99;100.00;52285.03;5022830;28;20414;-65
2021/08/07 07:40:05;;;;;;;;;;;;;;;-144.99;100.00;52272.81;5025858;28;19925;-65
2021/08/07 07:42:31;;;;;;;;;;;;;;;-144.99;99.47;52315.59;5027923;28;20406;-65
2021/08/07 07:44:59;;;;;;;;;;;;;;;-144.99;98.41;52297.25;5028071;28;19925;-65
2021/08/07 07:47:25;;;;;;;;;;;;;;;-144.99;98.18;52305.41;5027796;28;19956;-65
2021/08/07 07:49:52;;;;;;;;;;;;;;;-144.99;98.03;52325.81;5027357;28;20276;-66
2021/08/07 07:52:18;;;;;;;;;;;;;;;-144.99;97.17;52321.72;5026775;28;19929;-66
2021/08/07 07:54:44;;;;;;;;;;;;;;;-144.99;96.83;52307.47;5027580;28;19925;-65
2021/08/07 07:57:11;;;;;;;;;;;;;;;-144.99;97.21;52317.66;5027681;28;19929;-66
2021/08/07 07:59:37;;;;;;;;;;;;;;;-144.99;96.42;52293.19;5028466;28;19925;-66
2021/08/07 08:02:05;;;;;;;;;;;;;;;-144.99;96.47;52350.25;5027826;28;20263;-66
2021/08/07 08:04:32;;;;;;;;;;;;;;;-144.99;94.77;52293.19;5027038;28;20280;-66
2021/08/07 08:06:59;;;;;;;;;;;;;;;-144.99;93.95;52305.41;5027685;28;20414;-66
2021/08/07 08:09:26;;;;;;;;;;;;;;;-144.99;93.19;52342.09;5026129;28;19925;-66
2021/08/07 08:11:52;;;;;;;;;;;;;;;-144.99;91.66;52289.13;5023999;28;19925;-66
2021/08/07 08:14:18;;;;;;;;;;;;;;;-144.99;91.41;52301.34;5026642;28;19932;-66
2021/08/07 08:16:46;;;;;;;;;;;;;;;-144.99;91.14;52301.34;5026669;28;19932;-66
2021/08/07 08:19:13;;;;;;;;;;;;;;;-144.99;91.40;52317.66;5027102;28;20449;-67
2021/08/07 08:21:40;;;;;;;;;;;;;;;-144.99;90.26;52307.47;5025028;28;19932;-70
2021/08/07 08:24:06;;;;;;;;;;;;;;;-144.99;88.84;52293.19;5028154;28;19925;-70
2021/08/07 08:26:33;;;;;;;;;;;;;;;-144.99;85.31;52268.72;5028451;28;19933;-70
2021/08/07 08:28:59;;;;;;;;;;;;;;;-144.99;84.96;52305.41;5026166;28;19944;-70
2021/08/07 08:31:26;;;;;;;;;;;;;;;-144.99;85.60;52268.72;5027889;28;19925;-74
2021/08/07 08:33:52;;;;;;;;;;;;;;;-144.99;84.47;52248.34;5028177;28;20375;-71
2021/08/07 08:36:20;;;;;;;;;;;;;;;-144.99;80.57;52236.13;5025960;28;19933;-71
2021/08/07 08:38:46;;;;;;;;;;;;;;;-144.99;78.59;52236.13;5028008;28;19925;-71
2021/08/07 08:41:13;;;;;;;;;;;;;;;-144.99;78.15;52254.47;5028869;28;20410;-71
2021/08/07 08:43:39;;;;;;;;;;;;;;;-144.99;77.87;52232.03;5027276;28;19925;-71
2021/08/07 08:46:06;;;;;;;;;;;;;;;-144.99;75.47;52268.72;5028149;28;19931;-71
2021/08/07 08:48:36;;;;;;;;;;;;;;;-144.99;77.15;52260.56;5027329;28;19940;-71
2021/08/07 08:51:05;;;;;;;;;;;;;;;-144.99;76.31;52236.13;5026162;28;19937;-71
2021/08/07 08:53:33;;;;;;;;;;;;;;;-144.99;76.69;52268.72;5028050;28;20334;-68
2021/08/07 08:56:00;;;;;;;;;;;;;;;-144.99;76.85;52268.72;5026077;28;19929;-68
2021/08/07 08:58:26;;;;;;;;;;;;;;;-144.99;77.56;52264.66;5023608;28;19925;-68
2021/08/07 09:00:53;;;;;;;;;;;;;;;-144.99;76.52;52280.97;5023000;28;19925;-68
2021/08/07 09:03:19;;;;;;;;;;;;;;;-144.99;77.16;52248.34;5025046;28;20428;-68
2021/08/07 09:05:46;;;;;;;;;;;;;;;-144.99;75.88;52234.09;5025688;28;20020;-68
2021/08/07 09:08:15;;;;;;;;;;;;;;;-144.99;75.28;52287.06;5026005;28;19925;-68
2021/08/07 09:10:43;;;;;;;;;;;;;;;-144.99;73.75;52246.31;5025524;28;20411;-68
2021/08/07 09:13:18;;;;;;;;;;;;;;;-144.99;75.91;52268.72;5027706;28;19925;-68
2021/08/07 09:15:45;;;;;;;;;;;;;;;-144.99;76.71;52248.34;5027124;28;20342;-68
2021/08/07 09:18:18;;;;;;;;;;;;;;;-144.99;75.62;52285.03;5037623;28;19978;-67
2021/08/07 09:20:46;;;;;;;;;;;;;;;-144.99;76.64;52278.91;5019476;28;19964;-68
2021/08/07 09:23:12;;;;;;;;;;;;;;;-144.99;75.50;52272.81;5030493;28;19925;-68
2021/08/07 09:25:39;;;;;;;;;;;;;;;-144.99;75.69;52293.19;5033530;28;20022;-68
2021/08/07 09:28:08;;;;;;;;;;;;;;;-144.99;74.70;52252.44;5032004;28;20399;-68
2021/08/07 09:30:35;;;;;;;;;;;;;;;-144.99;74.48;52244.28;5030201;28;19947;-68
2021/08/07 09:33:02;;;;;;;;;;;;;;;-144.99;73.02;52264.66;5030872;28;20016;-68
2021/08/07 09:35:30;;;;;;;;;;;;;;;-144.99;72.53;52272.81;5026758;28;19933;-68
2021/08/07 09:38:06;;;;;;;;;;;;;;;-144.99;73.51;52242.22;5026173;28;20342;-68
2021/08/07 09:40:40;;;;;;;;;;;;;;;-144.99;73.47;52227.97;5025582;28;20410;-68
2021/08/07 09:43:08;;;;;;;;;;;;;;;-144.99;72.96;52225.94;5027926;28;19925;-68
2021/08/07 09:45:35;;;;;;;;;;;;;;;-144.99;71.41;52256.50;5028036;28;19995;-68
2021/08/07 09:48:02;;;;;;;;;;;;;;;-144.99;69.44;52242.22;5025795;28;19932;-68
2021/08/07 09:50:29;;;;;;;;;;;;;;;-144.99;69.76;52278.91;5027054;28;19929;-68
2021/08/07 09:52:56;;;;;;;;;;;;;;;-144.99;67.49;52280.97;5029778;28;19947;-68
2021/08/07 09:55:23;;;;;;;;;;;;;;;-144.99;68.59;52252.44;5032212;28;20221;-68
2021/08/07 09:58:00;;;;;;;;;;;;;;;-144.99;68.14;52215.75;5030001;28;19936;-68
2021/08/07 10:00:35;;;;;;;;;;;;;;;-144.99;68.11;52260.56;5042001;28;19955;-68
2021/08/07 10:03:13;;;;;;;;;;;;;;;-144.99;68.39;52221.84;5041898;28;19929;-68
2021/08/07 10:05:40;;;;;;;;;;;;;;;-144.99;65.27;52240.19;5043949;22;19929;-60
2021/08/07 10:08:07;;;;;;;;;;;;;;;-144.99;65.66;52236.13;5028655;28;20459;-60
2021/08/07 10:10:34;;;;;;;;;;;;;;;-144.99;65.03;52203.50;5022918;28;19937;-60
2021/08/07 10:13:01;;;;;;;;;;;;;;;-144.99;65.74;52248.34;5029611;28;19948;-60
2021/08/07 10:15:28;;;;;;;;;;;;;;;-144.99;63.95;52254.47;5028738;28;19925;-60
2021/08/07 10:17:56;;;;;;;;;;;;;;;-144.99;64.73;52219.81;5032468;28;19932;-60
2021/08/07 10:20:23;;;;;;;;;;;;;;;-144.99;65.36;52211.66;5040273;28;19925;-60
2021/08/07 10:22:50;;;;;;;;;;;;;;;-144.99;66.48;52248.34;5043710;28;20310;-60
2021/08/07 10:25:16;;;;;;;;;;;;;;;-144.99;65.95;52262.63;5015772;28;19971;-60
2021/08/07 10:27:43;;;;;;;;;;;;;;;-144.99;66.18;52240.19;5036532;28;19932;-61
2021/08/07 10:30:11;;;;;;;;;;;;;;;-144.99;66.04;52244.28;5037458;28;19929;-62
2021/08/07 10:32:39;;;;;;;;;;;;;;;-144.99;67.31;52236.13;5028488;28;19979;-61
2021/08/07 10:35:09;;;;;;;;;;;;;;;-144.99;65.84;52301.34;5029082;28;20392;-60
2021/08/07 10:37:36;;;;;;;;;;;;;;;-144.99;67.18;52254.47;5036263;28;19928;-65
2021/08/07 10:40:02;;;;;;;;;;;;;;;-144.99;66.32;52244.28;5038956;28;20240;-64
2021/08/07 10:42:30;;;;;;;;;;;;;;;-144.99;66.55;52285.03;5041016;28;19928;-61
2021/08/07 10:44:58;;;;;;;;;;;;;;;-144.99;68.04;52289.13;5038218;28;20283;-62
2021/08/07 10:47:34;;;;;;;;;;;;;;;-144.99;68.00;52252.44;5032500;28;19979;-63
2021/08/07 10:50:01;;;;;;;;;;;;;;;-144.99;67.04;52195.34;5032403;28;19933;-59
2021/08/07 10:52:38;;;;;;;;;;;;;;;-144.99;64.31;52174.97;5029485;28;20100;-58
2021/08/07 10:55:04;;;;;;;;;;;;;;;-144.99;63.08;52199.44;5037190;28;19933;-61
2021/08/07 10:57:35;;;;;;;;;;;;;;;-144.99;63.87;52256.50;5043963;28;19925;-59
2021/08/07 11:00:02;;;;;;;;;;;;;;;-144.99;65.14;52244.28;5038000;28;20004;-66
2021/08/07 11:02:28;;;;;;;;;;;;;;;-144.99;63.85;52227.97;5032851;28;19925;-62
2021/08/07 11:04:55;;;;;;;;;;;;;;;-144.99;64.97;52170.91;5038623;28;19925;-60
2021/08/07 11:07:22;;;;;;;;;;;;;;;-144.99;63.71;52073.06;5034994;28;20019;-59
2021/08/07 11:10:07;;;;;;;;;;;;;;;-144.99;61.33;52121.97;5043786;28;19975;-59
2021/08/07 11:12:34;;;;;;;;;;;;;;;-144.99;61.36;52093.44;5031570;28;20366;-60
2021/08/07 11:15:07;;;;;;;;;;;;;;;-144.99;63.10;52105.69;5042591;28;19929;-60
2021/08/07 11:17:55;;;;;;;;;;;;;;;-144.99;60.70;52248.34;5040342;28;19925;-60
2021/08/07 11:20:40;;;;;;;;;;;;;;;-144.99;61.98;52252.44;5030712;28;20236;-60
2021/08/07 11:23:11;;;;;;;;;;;;;;;-144.99;62.00;52146.44;5029475;28;19936;-60
2021/08/07 11:26:01;;;;;;;;;;;;;;;-144.99;61.38;52105.69;5033194;28;19925;-60
2021/08/07 11:28:30;;;;;;;;;;;;;;;-144.99;59.89;52077.16;5032151;28;20052;-59
2021/08/07 11:31:13;;;;;;;;;;;;;;;-144.99;58.81;52109.75;5032381;28;20405;-59
2021/08/07 11:33:39;;;;;;;;;;;;;;;-144.99;58.99;52048.63;5032575;28;20386;-59
2021/08/07 11:36:07;;;;;;;;;;;;;;;-144.99;57.55;52085.31;5027399;28;20306;-58
2021/08/07 11:38:34;;;;;;;;;;;;;;;-144.99;57.06;52081.22;5040189;28;19933;-61
2021/08/07 11:41:02;;;;;;;;;;;;;;;-144.99;56.56;52064.91;5036306;28;19929;-59
2021/08/07 11:43:30;;;;;;;;;;;;;;;-144.99;55.17;52181.09;5031918;28;19925;-58
2021/08/07 11:46:04;;;;;;;;;;;;;;;-144.99;56.32;52107.72;5031185;28;20224;-60
2021/08/07 11:48:32;;;;;;;;;;;;;;;-144.99;54.67;52093.44;5030675;28;19932;-59
2021/08/07 11:50:59;;;;;;;;;;;;;;;-144.99;54.68;52252.44;5031623;28;19925;-59
2021/08/07 11:53:26;;;;;;;;;;;;;;;-144.99;55.18;52146.44;5037844;28;20306;-60
2021/08/07 11:55:56;;;;;;;;;;;;;;;-144.99;55.02;52081.22;5035392;28;20303;-60
2021/08/07 11:58:22;;;;;;;;;;;;;;;-144.99;54.79;52148.47;5041056;28;19947;-60
2021/08/07 12:00:50;;;;;;;;;;;;;;;-144.99;54.33;52195.34;5030920;28;20192;-62
2021/08/07 12:03:16;;;;;;;;;;;;;;;-144.99;54.61;52219.81;5028836;28;19934;-61
2021/08/07 12:05:50;;;;;;;;;;;;;;;-144.99;56.45;52236.13;5034583;28;20294;-59
2021/08/07 12:08:17;;;;;;;;;;;;;;;-144.99;56.33;52244.28;5044313;28;19925;-62
2021/08/07 12:10:48;;;;;;;;;;;;;;;-144.99;57.31;52283.00;5030076;28;19944;-61
2021/08/07 12:13:19;;;;;;;;;;;;;;;-144.99;58.61;52301.34;5030833;28;19925;-61
2021/08/07 12:15:53;;;;;;;;;;;;;;;-144.99;60.46;52260.56;5029837;28;20379;-61
2021/08/07 12:18:19;;;;;;;;;;;;;;;-144.99;61.11;52280.97;5034993;28;20390;-61
2021/08/07 12:20:46;;;;;;;;;;;;;;;-144.99;62.24;52280.97;5040838;28;19931;-59
2021/08/07 12:23:13;;;;;;;;;;;;;;;-144.99;62.83;52272.81;5041316;28;19947;-61